Time;durP1;ratioP1;P1;durP2;ratioP2;P2;SDS_P1;SDS_P2;PMS_P1;PMS_P2;Temp;Humidity;BMP_temperature;BMP_pressure;BME280_temperature;BME280_humidity;BME280_pressure;Samples;Min_cycle;Max_cycle;Signal;HPM_P1;HPM_P2
2023/11/22 00:00:55;;;;;;;19.90;12.70;;;5.90;99.90;;;;;;5050807;28;20187;-46
2023/11/22 00:03:24;;;;;;;20.13;12.90;;;5.90;99.90;;;;;;5045540;28;20252;-44
2023/11/22 00:05:51;;;;;;;19.38;12.82;;;5.90;99.90;;;;;;5047620;28;21624;-44
2023/11/22 00:08:17;;;;;;;19.65;12.50;;;5.80;99.90;;;;;;5045509;28;20184;-51
2023/11/22 00:10:44;;;;;;;21.27;12.63;;;5.80;99.90;;;;;;5048373;28;20203;-52
2023/11/22 00:13:11;;;;;;;18.13;11.95;;;5.80;99.90;;;;;;5047829;28;20206;-44
2023/11/22 00:15:37;;;;;;;18.20;12.25;;;5.70;99.90;;;;;;5046603;28;20231;-48
2023/11/22 00:18:03;;;;;;;18.13;12.48;;;5.70;99.90;;;;;;5047801;28;21069;-48
2023/11/22 00:20:30;;;;;;;19.48;12.07;;;5.80;99.90;;;;;;5047554;28;20194;-44
2023/11/22 00:22:56;;;;;;;18.20;12.55;;;5.70;99.90;;;;;;5046120;28;20183;-48
2023/11/22 00:25:22;;;;;;;21.27;12.95;;;5.70;99.90;;;;;;5050057;28;20274;-49
2023/11/22 00:27:48;;;;;;;22.58;12.70;;;5.70;99.90;;;;;;5043719;28;20281;-46
2023/11/22 00:30:14;;;;;;;22.00;13.48;;;5.70;99.90;;;;;;5062378;28;20195;-46
2023/11/22 00:32:40;;;;;;;20.20;13.07;;;5.70;99.90;;;;;;5047277;28;20661;-47
2023/11/22 00:35:08;;;;;;;21.73;12.57;;;5.70;99.90;;;;;;5047971;28;20211;-50
2023/11/22 00:37:34;;;;;;;20.92;13.35;;;5.70;99.90;;;;;;5045980;28;20183;-47
2023/11/22 00:40:10;;;;;;;20.02;13.18;;;5.70;99.90;;;;;;5047690;28;20231;-49
2023/11/22 00:42:42;;;;;;;21.88;12.95;;;5.80;99.90;;;;;;5045719;28;20193;-51
2023/11/22 00:45:09;;;;;;;23.58;13.65;;;5.80;99.90;;;;;;5047737;28;20201;-45
2023/11/22 00:47:37;;;;;;;23.48;13.60;;;5.80;99.90;;;;;;5045420;28;20256;-46
2023/11/22 00:50:04;;;;;;;20.13;13.13;;;5.80;99.90;;;;;;5039812;28;20730;-45
2023/11/22 00:52:31;;;;;;;19.38;12.93;;;5.70;99.90;;;;;;5047456;28;20202;-47
2023/11/22 00:54:57;;;;;;;21.23;13.55;;;5.80;99.90;;;;;;5045836;28;20207;-49
2023/11/22 00:57:23;;;;;;;21.55;14.15;;;5.70;99.90;;;;;;5062010;28;20197;-44
2023/11/22 00:59:49;;;;;;;19.65;13.10;;;5.70;99.90;;;;;;5048392;28;20179;-46
2023/11/22 01:02:16;;;;;;;21.48;13.55;;;5.60;99.90;;;;;;5046351;28;20278;-47
2023/11/22 01:04:42;;;;;;;20.27;12.88;;;5.50;99.90;;;;;;5045848;28;20191;-47
2023/11/22 01:07:08;;;;;;;21.90;13.40;;;5.50;99.90;;;;;;5046547;28;20690;-50
2023/11/22 01:09:34;;;;;;;19.52;13.23;;;5.50;99.90;;;;;;5064846;28;20280;-48
2023/11/22 01:12:00;;;;;;;23.08;13.80;;;5.40;99.90;;;;;;5052005;28;20723;-48
2023/11/22 01:14:27;;;;;;;21.30;13.65;;;5.40;99.90;;;;;;5048361;28;20627;-46
2023/11/22 01:16:54;;;;;;;22.02;13.85;;;5.40;99.90;;;;;;5051598;28;20183;-45
2023/11/22 01:19:20;;;;;;;21.77;13.20;;;5.40;99.90;;;;;;5050062;28;20187;-48
2023/11/22 01:21:46;;;;;;;21.60;13.63;;;5.30;99.90;;;;;;5047121;28;20179;-43
2023/11/22 01:24:12;;;;;;;22.27;13.10;;;5.30;99.90;;;;;;5050175;28;20262;-46
2023/11/22 01:26:38;;;;;;;23.48;12.95;;;5.30;99.90;;;;;;5051223;28;20658;-47
2023/11/22 01:29:05;;;;;;;26.30;13.48;;;5.30;99.90;;;;;;5051316;28;20195;-44
2023/11/22 01:31:32;;;;;;;20.80;13.45;;;5.20;99.90;;;;;;5065292;28;20675;-48
2023/11/22 01:33:59;;;;;;;21.10;13.02;;;5.20;99.90;;;;;;5049352;28;20292;-51
2023/11/22 01:36:26;;;;;;;23.60;13.55;;;5.10;99.90;;;;;;5032283;28;20198;-51
2023/11/22 01:38:52;;;;;;;21.80;13.57;;;5.10;99.90;;;;;;5066151;28;21202;-45
2023/11/22 01:41:19;;;;;;;20.10;13.55;;;5.00;99.90;;;;;;5052677;28;20190;-46
2023/11/22 01:43:46;;;;;;;24.05;14.85;;;5.00;99.90;;;;;;5051148;28;20205;-46
2023/11/22 01:46:22;;;;;;;23.25;14.38;;;4.90;99.90;;;;;;5065386;28;20199;-45
2023/11/22 01:48:48;;;;;;;21.00;13.30;;;4.90;99.90;;;;;;5049381;28;20185;-49
2023/11/22 01:51:14;;;;;;;21.83;14.23;;;4.80;99.90;;;;;;5052411;28;20231;-48
2023/11/22 01:53:41;;;;;;;25.35;14.50;;;4.90;99.90;;;;;;5049243;28;20211;-47
2023/11/22 01:56:09;;;;;;;24.38;14.75;;;4.80;99.90;;;;;;5052014;28;20187;-48
2023/11/22 01:58:35;;;;;;;24.02;14.68;;;4.80;99.90;;;;;;5047521;28;20190;-45
2023/11/22 02:01:03;;;;;;;20.67;14.00;;;4.80;99.90;;;;;;5065308;28;20639;-48
2023/11/22 02:03:30;;;;;;;24.83;15.02;;;4.70;99.90;;;;;;5048031;28;20213;-44
2023/11/22 02:05:56;;;;;;;23.85;15.23;;;4.70;99.90;;;;;;5048592;28;20330;-47
2023/11/22 02:08:22;;;;;;;24.90;15.25;;;4.70;99.90;;;;;;5048511;28;20277;-49
2023/11/22 02:10:58;;;;;;;26.40;14.05;;;4.70;99.90;;;;;;5069472;28;20191;-43
2023/11/22 02:13:24;;;;;;;19.90;13.63;;;4.70;99.90;;;;;;5048885;28;20666;-47
2023/11/22 02:15:50;;;;;;;21.83;14.27;;;4.70;99.90;;;;;;5049905;28;20193;-44
2023/11/22 02:18:16;;;;;;;23.15;14.40;;;4.60;99.90;;;;;;5062047;28;20714;-44
2023/11/22 02:20:42;;;;;;;21.27;14.13;;;4.70;99.90;;;;;;5046223;28;20341;-45
2023/11/22 02:23:09;;;;;;;24.35;14.88;;;4.60;99.90;;;;;;5051364;28;20187;-50
2023/11/22 02:25:35;;;;;;;22.88;13.38;;;4.60;99.90;;;;;;5050232;28;20244;-49
2023/11/22 02:28:02;;;;;;;23.60;14.48;;;4.60;99.90;;;;;;5049374;28;20191;-44
2023/11/22 02:30:29;;;;;;;22.75;14.35;;;4.60;99.90;;;;;;5048685;28;20229;-45
2023/11/22 02:32:55;;;;;;;26.13;15.05;;;4.60;99.90;;;;;;5048700;28;20229;-47
2023/11/22 02:35:21;;;;;;;24.50;14.52;;;4.60;99.90;;;;;;5049493;28;20543;-44
2023/11/22 02:37:48;;;;;;;27.42;14.85;;;4.60;99.90;;;;;;5064614;28;20194;-43
2023/11/22 02:40:18;;;;;;;22.50;14.43;;;4.60;99.90;;;;;;5066974;28;20538;-47
2023/11/22 02:42:52;;;;;;;27.15;14.88;;;4.60;99.90;;;;;;5064575;28;20199;-49
2023/11/22 02:45:23;;;;;;;24.80;14.80;;;4.50;99.90;;;;;;5045298;28;20195;-49
2023/11/22 02:47:50;;;;;;;22.92;13.38;;;4.50;99.90;;;;;;5045995;28;20215;-48
2023/11/22 02:50:16;;;;;;;23.77;14.43;;;4.50;99.90;;;;;;5050808;28;20213;-47
2023/11/22 02:52:42;;;;;;;20.80;13.45;;;4.50;99.90;;;;;;5047872;28;20199;-47
2023/11/22 02:55:09;;;;;;;27.00;15.27;;;4.50;99.90;;;;;;5051316;28;20210;-48
2023/11/22 02:57:41;;;;;;;22.55;14.35;;;4.40;99.90;;;;;;5049132;28;20604;-48
2023/11/22 03:00:09;;;;;;;24.05;14.48;;;4.40;99.90;;;;;;5050429;28;20673;-44
2023/11/22 03:02:35;;;;;;;24.63;14.07;;;4.40;99.90;;;;;;5045937;28;20191;-50
2023/11/22 03:05:01;;;;;;;25.08;14.75;;;4.30;99.90;;;;;;5049619;28;20190;-50
2023/11/22 03:07:30;;;;;;;23.08;13.93;;;4.20;99.90;;;;;;5047904;28;20187;-49
2023/11/22 03:10:00;;;;;;;22.58;14.13;;;4.20;99.90;;;;;;5063267;28;20218;-49
2023/11/22 03:12:26;;;;;;;20.73;13.80;;;4.20;99.90;;;;;;5046219;28;20208;-46
2023/11/22 03:14:53;;;;;;;27.42;14.52;;;4.20;99.90;;;;;;5051178;28;20206;-44
2023/11/22 03:17:19;;;;;;;24.63;14.73;;;4.10;99.90;;;;;;5047343;28;20199;-51
2023/11/22 03:19:46;;;;;;;26.17;14.90;;;4.10;99.90;;;;;;5048752;28;20198;-43
2023/11/22 03:22:12;;;;;;;23.83;14.43;;;4.10;99.90;;;;;;5051671;28;20236;-49
2023/11/22 03:24:38;;;;;;;27.75;14.63;;;4.10;99.90;;;;;;5049438;28;20198;-48
2023/11/22 03:27:05;;;;;;;23.40;14.35;;;4.10;99.90;;;;;;5046114;28;20222;-46
2023/11/22 03:29:32;;;;;;;24.15;14.35;;;4.10;99.90;;;;;;5048744;28;20198;-50
2023/11/22 03:31:58;;;;;;;22.55;14.45;;;4.00;99.90;;;;;;5048424;28;20190;-49
2023/11/22 03:34:24;;;;;;;22.90;13.52;;;4.00;99.90;;;;;;5044449;28;20215;-45
2023/11/22 03:36:49;;;;;;;24.48;14.07;;;4.00;99.90;;;;;;5051038;28;20673;-50
2023/11/22 03:39:16;;;;;;;25.50;14.98;;;4.00;99.90;;;;;;5049285;28;20183;-47
2023/11/22 03:41:42;;;;;;;22.63;14.10;;;4.00;99.90;;;;;;5049088;28;20218;-50
2023/11/22 03:44:08;;;;;;;27.25;14.98;;;4.00;99.90;;;;;;5029983;28;20290;-47
2023/11/22 03:46:36;;;;;;;24.27;14.05;;;4.00;99.90;;;;;;5046439;28;20194;-42
2023/11/22 03:49:06;;;;;;;25.38;14.82;;;4.00;99.90;;;;;;5047143;28;22052;-46
2023/11/22 03:51:33;;;;;;;22.98;14.50;;;4.00;99.90;;;;;;5063189;28;20243;-48
2023/11/22 03:53:59;;;;;;;28.85;14.43;;;3.90;99.90;;;;;;5061289;28;20290;-46
2023/11/22 03:56:26;;;;;;;24.20;14.43;;;3.90;99.90;;;;;;5052166;28;20179;-48
2023/11/22 03:58:52;;;;;;;29.50;15.15;;;3.90;99.90;;;;;;5049295;28;20179;-44
2023/11/22 04:01:19;;;;;;;27.00;15.65;;;3.90;99.90;;;;;;5047412;28;20245;-50
2023/11/22 04:03:45;;;;;;;25.98;14.90;;;3.90;99.90;;;;;;5047785;28;21313;-46
2023/11/22 04:06:11;;;;;;;29.42;16.52;;;3.80;99.90;;;;;;5050337;28;20196;-47
2023/11/22 04:08:37;;;;;;;26.48;13.98;;;3.80;99.90;;;;;;5047559;28;20728;-43
2023/11/22 04:11:05;;;;;;;31.17;15.30;;;3.80;99.90;;;;;;5048320;28;20187;-47
2023/11/22 04:13:31;;;;;;;24.40;14.10;;;3.80;99.90;;;;;;5045630;28;20215;-48
2023/11/22 04:15:57;;;;;;;25.75;14.95;;;3.80;99.90;;;;;;5051515;28;20194;-45
2023/11/22 04:18:24;;;;;;;27.10;14.52;;;3.80;99.90;;;;;;5047902;28;20197;-43
2023/11/22 04:20:50;;;;;;;27.58;15.45;;;3.80;99.90;;;;;;5047106;28;20277;-49
2023/11/22 04:23:16;;;;;;;25.95;15.60;;;3.70;99.90;;;;;;5049308;28;20646;-45
2023/11/22 04:25:42;;;;;;;28.67;15.20;;;3.70;99.90;;;;;;5047955;28;20185;-46
2023/11/22 04:28:09;;;;;;;30.25;16.00;;;3.70;99.90;;;;;;5064959;28;20230;-47
2023/11/22 04:30:35;;;;;;;25.80;15.65;;;3.70;99.90;;;;;;5046167;28;20674;-42
2023/11/22 04:33:01;;;;;;;26.42;14.00;;;3.70;99.90;;;;;;5047244;28;20199;-43
2023/11/22 04:35:27;;;;;;;30.98;16.05;;;3.70;99.90;;;;;;5046111;28;20191;-42
2023/11/22 04:37:55;;;;;;;27.63;15.00;;;3.70;99.90;;;;;;5048334;28;20179;-44
2023/11/22 04:40:21;;;;;;;32.70;15.43;;;3.70;99.90;;;;;;5047986;28;20183;-47
2023/11/22 04:42:48;;;;;;;30.70;16.25;;;3.70;99.90;;;;;;5048865;28;20188;-48
2023/11/22 04:45:14;;;;;;;29.73;16.33;;;3.70;99.90;;;;;;5069105;28;20203;-47
2023/11/22 04:47:40;;;;;;;29.50;16.77;;;3.70;99.90;;;;;;5049049;28;20502;-52
2023/11/22 04:50:06;;;;;;;29.70;15.95;;;3.70;99.90;;;;;;5050976;28;20219;-47
2023/11/22 04:52:32;;;;;;;29.30;17.58;;;3.70;99.90;;;;;;5069125;28;20203;-50
2023/11/22 04:54:58;;;;;;;35.28;17.48;;;3.70;99.90;;;;;;5052743;28;20257;-46
2023/11/22 04:57:24;;;;;;;36.08;17.48;;;3.70;99.90;;;;;;5054260;28;20186;-49
2023/11/22 04:59:50;;;;;;;32.35;17.48;;;3.80;99.90;;;;;;5052609;28;20187;-49
2023/11/22 05:02:16;;;;;;;33.47;18.95;;;3.80;99.90;;;;;;5045395;28;20191;-46
2023/11/22 05:04:42;;;;;;;34.13;20.98;;;3.80;99.90;;;;;;5052554;28;20214;-44
2023/11/22 05:07:08;;;;;;;34.55;18.95;;;3.80;99.90;;;;;;5050962;28;20223;-45
2023/11/22 05:09:34;;;;;;;40.45;18.40;;;3.80;99.90;;;;;;5053157;28;20202;-44
2023/11/22 05:12:00;;;;;;;38.10;20.90;;;3.90;99.90;;;;;;5053504;28;20178;-46
2023/11/22 05:14:26;;;;;;;40.03;21.38;;;3.90;99.90;;;;;;5053528;28;20263;-45
2023/11/22 05:16:52;;;;;;;40.35;21.10;;;3.90;99.90;;;;;;5051994;28;20243;-50
2023/11/22 05:19:19;;;;;;;36.80;20.83;;;4.00;99.90;;;;;;5052097;28;20713;-45
2023/11/22 05:21:45;;;;;;;41.00;20.75;;;4.00;99.90;;;;;;5051567;28;20180;-48
2023/11/22 05:24:11;;;;;;;36.30;20.42;;;4.00;99.90;;;;;;5054415;28;20187;-49
2023/11/22 05:26:37;;;;;;;37.22;19.25;;;4.10;99.90;;;;;;5053995;28;20191;-48
2023/11/22 05:29:07;;;;;;;34.50;19.95;;;4.10;99.90;;;;;;5050648;28;20274;-46
2023/11/22 05:31:32;;;;;;;37.42;19.50;;;4.10;99.90;;;;;;5049391;28;20199;-49
2023/11/22 05:33:58;;;;;;;37.75;20.13;;;4.20;99.90;;;;;;5047446;28;20268;-44
2023/11/22 05:36:24;;;;;;;32.80;20.10;;;4.20;99.90;;;;;;5049661;28;20191;-47
2023/11/22 05:38:50;;;;;;;38.53;20.45;;;4.20;99.90;;;;;;5049745;28;20191;-45
2023/11/22 05:41:16;;;;;;;34.85;19.45;;;4.20;99.90;;;;;;5051151;28;20210;-50
2023/11/22 05:43:42;;;;;;;33.50;19.27;;;4.30;99.90;;;;;;5051626;28;20667;-46
2023/11/22 05:46:08;;;;;;;34.35;20.45;;;4.30;99.90;;;;;;5050198;28;20209;-44
2023/11/22 05:48:35;;;;;;;34.92;19.40;;;4.30;99.90;;;;;;5047586;28;21310;-51
2023/11/22 05:51:00;;;;;;;34.95;20.45;;;4.40;99.90;;;;;;5048075;28;20222;-45
2023/11/22 05:53:26;;;;;;;38.75;21.90;;;4.40;99.90;;;;;;5051873;28;20742;-44
2023/11/22 05:55:52;;;;;;;36.13;22.35;;;4.40;99.90;;;;;;5050831;28;20183;-47
2023/11/22 05:58:18;;;;;;;36.65;21.05;;;4.30;99.90;;;;;;5062273;28;20309;-48
2023/11/22 06:00:47;;;;;;;34.63;20.75;;;4.40;99.90;;;;;;5064369;28;20297;-47
2023/11/22 06:03:14;;;;;;;43.30;21.45;;;4.40;99.90;;;;;;5048002;28;20186;-44
2023/11/22 06:05:40;;;;;;;39.55;20.70;;;4.40;99.90;;;;;;5051061;28;20191;-46
2023/11/22 06:08:06;;;;;;;36.78;20.67;;;4.40;99.90;;;;;;5050765;28;20195;-46
2023/11/22 06:10:33;;;;;;;35.20;20.90;;;4.40;99.90;;;;;;5052247;28;20643;-48
2023/11/22 06:12:59;;;;;;;38.78;20.13;;;4.40;99.90;;;;;;5053003;28;20652;-45
2023/11/22 06:15:25;;;;;;;38.45;20.30;;;4.40;99.90;;;;;;5049282;28;20305;-49
2023/11/22 06:17:51;;;;;;;36.03;19.40;;;4.40;99.90;;;;;;5049876;28;20644;-46
2023/11/22 06:20:17;;;;;;;34.00;19.77;;;4.40;99.90;;;;;;5048124;28;20214;-47
2023/11/22 06:22:44;;;;;;;38.67;19.30;;;4.30;99.90;;;;;;5049107;28;20218;-52
2023/11/22 06:25:10;;;;;;;36.95;19.02;;;4.30;99.90;;;;;;5051860;28;20194;-43
2023/11/22 06:27:37;;;;;;;45.90;20.25;;;4.30;99.90;;;;;;5050258;28;20202;-44
2023/11/22 06:30:03;;;;;;;37.97;19.92;;;4.30;99.90;;;;;;5047093;28;20253;-51
2023/11/22 06:32:30;;;;;;;35.50;19.58;;;4.20;99.90;;;;;;5049421;28;20277;-44
2023/11/22 06:34:56;;;;;;;38.47;19.95;;;4.20;99.90;;;;;;5050997;28;20218;-43
2023/11/22 06:37:22;;;;;;;42.67;20.80;;;4.20;99.90;;;;;;5048733;28;20194;-50
2023/11/22 06:39:48;;;;;;;40.35;21.45;;;4.20;99.90;;;;;;5047960;28;20182;-42
2023/11/22 06:42:14;;;;;;;40.05;21.45;;;4.20;99.90;;;;;;5051806;28;20190;-43
2023/11/22 06:44:40;;;;;;;40.85;21.20;;;4.20;99.90;;;;;;5048186;28;20198;-46
2023/11/22 06:47:07;;;;;;;35.30;21.33;;;4.20;99.90;;;;;;5050084;28;20684;-48
2023/11/22 06:49:33;;;;;;;35.50;20.58;;;4.20;99.90;;;;;;5047914;28;20238;-43
2023/11/22 06:51:59;;;;;;;37.15;21.02;;;4.10;99.90;;;;;;5057558;28;20217;-50
2023/11/22 06:54:26;;;;;;;42.15;21.35;;;4.10;99.90;;;;;;5049094;28;20573;-46
2023/11/22 06:56:52;;;;;;;36.33;20.23;;;4.20;99.90;;;;;;5046647;28;20183;-47
2023/11/22 06:59:18;;;;;;;34.10;20.67;;;4.10;99.90;;;;;;5047258;28;21110;-47
2023/11/22 07:01:45;;;;;;;37.50;21.38;;;4.10;99.90;;;;;;5048844;28;20747;-51
2023/11/22 07:04:11;;;;;;;41.10;21.58;;;4.10;99.90;;;;;;5048791;28;20187;-45
2023/11/22 07:06:37;;;;;;;36.72;20.65;;;4.10;99.90;;;;;;5047257;28;20213;-47
2023/11/22 07:09:04;;;;;;;38.63;21.88;;;4.10;99.90;;;;;;5049917;28;20201;-49
2023/11/22 07:11:31;;;;;;;39.10;21.30;;;4.00;99.90;;;;;;5046805;28;20211;-49
2023/11/22 07:13:57;;;;;;;46.45;24.00;;;4.00;99.90;;;;;;5047169;28;20306;-48
2023/11/22 07:16:24;;;;;;;49.10;27.42;;;4.00;99.90;;;;;;5065514;28;20223;-48
2023/11/22 07:18:50;;;;;;;42.78;22.48;;;4.10;99.90;;;;;;5046797;28;20182;-49
2023/11/22 07:21:20;;;;;;;42.25;23.52;;;4.10;99.90;;;;;;5044795;28;20214;-46
2023/11/22 07:23:47;;;;;;;39.38;22.15;;;4.10;99.90;;;;;;5048691;28;20194;-46
2023/11/22 07:26:16;;;;;;;40.30;23.00;;;4.10;99.90;;;;;;5047568;28;20201;-44
2023/11/22 07:28:42;;;;;;;41.75;21.92;;;4.20;99.90;;;;;;5045687;28;20277;-47
2023/11/22 07:31:09;;;;;;;46.65;24.90;;;4.20;99.90;;;;;;5048584;28;20210;-51
2023/11/22 07:33:35;;;;;;;35.60;20.80;;;4.30;99.90;;;;;;5047865;28;20262;-49
2023/11/22 07:36:02;;;;;;;35.38;19.75;;;4.30;99.90;;;;;;5047488;28;20186;-48
2023/11/22 07:38:29;;;;;;;37.75;19.98;;;4.40;99.90;;;;;;5044265;28;20191;-49
2023/11/22 07:40:56;;;;;;;37.20;21.58;;;4.40;99.90;;;;;;5045727;28;20654;-44
2023/11/22 07:43:22;;;;;;;34.22;18.58;;;4.40;99.90;;;;;;5045029;28;20191;-51
2023/11/22 07:45:48;;;;;;;37.63;20.65;;;4.50;99.90;;;;;;5046277;28;20218;-50
2023/11/22 07:48:15;;;;;;;38.45;20.98;;;4.50;99.90;;;;;;5045965;28;20195;-48
2023/11/22 07:50:43;;;;;;;33.72;19.73;;;4.60;99.90;;;;;;5047356;28;20223;-42
2023/11/22 07:53:13;;;;;;;32.83;19.55;;;4.60;99.90;;;;;;5044316;28;20187;-45
2023/11/22 07:55:39;;;;;;;39.33;19.95;;;4.60;99.90;;;;;;5048977;28;20257;-45
2023/11/22 07:58:08;;;;;;;37.50;20.58;;;4.70;99.90;;;;;;5049286;28;20198;-48
2023/11/22 08:00:34;;;;;;;33.40;19.88;;;4.70;99.90;;;;;;5049251;28;20305;-43
2023/11/22 08:03:03;;;;;;;35.70;20.92;;;4.80;99.90;;;;;;5047297;28;20191;-43
2023/11/22 08:05:34;;;;;;;36.80;20.80;;;4.80;99.90;;;;;;5065365;28;20294;-46
2023/11/22 08:08:06;;;;;;;37.70;19.65;;;4.90;99.90;;;;;;5044213;28;20643;-45
2023/11/22 08:10:32;;;;;;;36.70;19.92;;;4.90;99.90;;;;;;5047827;28;20192;-48
2023/11/22 08:12:58;;;;;;;30.95;18.92;;;5.00;99.90;;;;;;5045192;28;20195;-50
2023/11/22 08:15:24;;;;;;;34.67;19.50;;;5.00;99.90;;;;;;5048493;28;20217;-47
2023/11/22 08:17:50;;;;;;;39.28;19.85;;;5.00;99.90;;;;;;5047121;28;20206;-46
2023/11/22 08:20:17;;;;;;;32.67;18.63;;;5.00;99.90;;;;;;5042930;28;20532;-47
2023/11/22 08:22:45;;;;;;;33.22;18.98;;;5.10;99.90;;;;;;5062625;28;20218;-43
2023/11/22 08:25:12;;;;;;;34.00;19.58;;;5.10;99.90;;;;;;5045831;28;20643;-44
2023/11/22 08:27:40;;;;;;;31.05;19.65;;;5.10;99.90;;;;;;5049614;28;20199;-45
2023/11/22 08:30:12;;;;;;;35.65;20.70;;;5.10;99.90;;;;;;5045392;28;20253;-46
2023/11/22 08:32:40;;;;;;;30.98;18.77;;;5.20;99.90;;;;;;5045713;28;20191;-47
2023/11/22 08:35:08;;;;;;;46.67;28.52;;;5.20;99.90;;;;;;5045080;28;20215;-48
2023/11/22 08:37:35;;;;;;;33.30;19.40;;;5.20;99.90;;;;;;5046869;28;20226;-47
2023/11/22 08:40:01;;;;;;;27.90;17.42;;;5.30;99.90;;;;;;5047294;28;20860;-47
2023/11/22 08:42:27;;;;;;;36.05;20.20;;;5.30;99.90;;;;;;5045421;28;20214;-47
2023/11/22 08:44:53;;;;;;;30.65;18.80;;;5.30;99.90;;;;;;5047550;28;20221;-48
2023/11/22 08:47:19;;;;;;;28.88;18.00;;;5.30;99.90;;;;;;5046740;28;20205;-45
2023/11/22 08:49:45;;;;;;;32.67;19.23;;;5.30;99.90;;;;;;5046210;28;20233;-46
2023/11/22 08:52:11;;;;;;;28.23;18.50;;;5.40;99.90;;;;;;5045778;28;20221;-45
2023/11/22 08:54:37;;;;;;;30.00;17.75;;;5.40;99.90;;;;;;5060262;28;20218;-45
2023/11/22 08:57:02;;;;;;;30.67;17.38;;;5.40;99.90;;;;;;5044655;28;20257;-49
2023/11/22 08:59:29;;;;;;;32.22;17.52;;;5.50;99.90;;;;;;5045887;28;20183;-47
2023/11/22 09:01:54;;;;;;;27.38;18.35;;;5.50;99.90;;;;;;5045913;28;20187;-46
2023/11/22 09:04:20;;;;;;;26.90;17.15;;;5.60;99.90;;;;;;5046498;28;20673;-45
2023/11/22 09:06:47;;;;;;;28.42;17.30;;;5.60;99.90;;;;;;5046865;28;20226;-48
2023/11/22 09:09:15;;;;;;;29.23;17.60;;;5.60;99.90;;;;;;5044317;28;20195;-49
2023/11/22 09:11:41;;;;;;;28.65;17.20;;;5.60;99.90;;;;;;5047480;28;20667;-46
2023/11/22 09:14:10;;;;;;;26.73;16.90;;;5.70;99.90;;;;;;5061590;28;20555;-46
2023/11/22 09:16:37;;;;;;;27.15;16.70;;;5.70;99.90;;;;;;5041614;28;20196;-43
2023/11/22 09:19:03;;;;;;;27.23;16.38;;;5.70;99.90;;;;;;5046482;28;20298;-44
2023/11/22 09:21:29;;;;;;;28.95;17.02;;;5.80;99.90;;;;;;5064459;28;20261;-47
2023/11/22 09:23:55;;;;;;;32.20;16.55;;;5.80;99.90;;;;;;5047175;28;20198;-42
2023/11/22 09:26:21;;;;;;;27.50;16.05;;;5.80;99.90;;;;;;5047075;28;20337;-48
2023/11/22 09:28:47;;;;;;;26.58;16.58;;;5.80;99.90;;;;;;5047140;28;20191;-53
2023/11/22 09:31:17;;;;;;;30.33;17.02;;;5.90;99.90;;;;;;5047238;28;20199;-46
2023/11/22 09:33:43;;;;;;;28.77;16.55;;;5.90;99.90;;;;;;5048001;28;20215;-45
2023/11/22 09:36:10;;;;;;;24.95;15.15;;;5.90;99.90;;;;;;5054075;28;20187;-45
2023/11/22 09:38:37;;;;;;;26.80;17.48;;;5.90;99.90;;;;;;5046890;28;20190;-45
2023/11/22 09:41:03;;;;;;;27.23;15.50;;;6.00;99.90;;;;;;5050477;28;20333;-47
2023/11/22 09:43:29;;;;;;;29.40;16.73;;;6.00;99.90;;;;;;5048906;28;20274;-49
2023/11/22 09:45:55;;;;;;;28.40;17.17;;;6.10;99.90;;;;;;5047281;28;20187;-51
2023/11/22 09:48:24;;;;;;;30.52;16.60;;;6.10;99.90;;;;;;5049775;28;20193;-50
2023/11/22 09:51:09;;;;;;;28.83;16.33;;;6.20;99.90;;;;;;5049115;28;20250;-48
2023/11/22 09:54:04;;;;;;;29.00;16.67;;;6.30;99.90;;;;;;5048239;28;20241;-48
2023/11/22 09:56:32;;;;;;;29.15;17.08;;;6.30;99.90;;;;;;5050070;28;20190;-50
2023/11/22 09:59:00;;;;;;;23.75;15.02;;;6.40;99.90;;;;;;5048589;28;20183;-45
2023/11/22 10:01:33;;;;;;;22.77;15.35;;;6.40;99.90;;;;;;5059290;28;20202;-43
2023/11/22 10:03:59;;;;;;;24.55;15.52;;;6.50;99.90;;;;;;5051497;28;20190;-48
2023/11/22 10:06:26;;;;;;;27.63;15.50;;;6.50;99.90;;;;;;5048626;28;20201;-50
2023/11/22 10:08:52;;;;;;;22.25;14.80;;;6.60;99.90;;;;;;5064159;28;20202;-50
2023/11/22 10:11:18;;;;;;;24.42;15.50;;;6.60;99.90;;;;;;5047084;28;20195;-48
2023/11/22 10:13:48;;;;;;;24.60;15.18;;;6.60;99.90;;;;;;5050430;28;20203;-48
2023/11/22 10:16:15;;;;;;;23.08;15.30;;;6.60;99.90;;;;;;5047682;28;20294;-51
2023/11/22 10:18:42;;;;;;;24.70;15.25;;;6.60;99.90;;;;;;5048181;28;20192;-50
2023/11/22 10:21:30;;;;;;;20.55;14.77;;;6.60;99.90;;;;;;5050691;28;20336;-47
2023/11/22 10:23:56;;;;;;;27.70;15.50;;;6.70;99.90;;;;;;5046771;28;20209;-49
2023/11/22 10:26:23;;;;;;;27.77;14.70;;;6.60;99.90;;;;;;5046793;28;20183;-45
2023/11/22 10:28:52;;;;;;;24.15;14.32;;;6.70;99.90;;;;;;5049197;28;20294;-42
2023/11/22 10:31:23;;;;;;;26.20;14.38;;;6.70;99.90;;;;;;5047777;28;20199;-43
2023/11/22 10:33:50;;;;;;;22.23;13.60;;;6.70;99.90;;;;;;5049566;28;20198;-51
2023/11/22 10:36:17;;;;;;;21.83;14.32;;;6.70;99.90;;;;;;5048886;28;20247;-47
2023/11/22 10:38:50;;;;;;;22.92;14.98;;;6.80;99.90;;;;;;5049114;28;20202;-49
2023/11/22 10:41:17;;;;;;;21.30;14.15;;;6.80;99.90;;;;;;5045650;28;20273;-47
2023/11/22 10:43:44;;;;;;;20.77;13.75;;;6.90;99.90;;;;;;5048892;28;20217;-45
2023/11/22 10:46:13;;;;;;;21.05;13.73;;;6.90;99.90;;;;;;5048109;28;20266;-47
2023/11/22 10:48:39;;;;;;;20.83;13.25;;;6.90;99.90;;;;;;5048456;28;20693;-45
2023/11/22 10:51:05;;;;;;;19.90;13.10;;;6.90;99.90;;;;;;5048460;28;20273;-46
2023/11/22 10:53:35;;;;;;;24.17;14.02;;;6.90;99.90;;;;;;5046957;28;20290;-49
2023/11/22 10:56:11;;;;;;;18.17;12.30;;;6.80;99.90;;;;;;5063222;28;20658;-51
2023/11/22 10:58:49;;;;;;;30.83;13.85;;;6.80;99.90;;;;;;5048970;28;20199;-54
2023/11/22 11:01:17;;;;;;;23.50;12.35;;;6.80;99.90;;;;;;5048441;28;20234;-48
2023/11/22 11:03:53;;;;;;;23.13;11.32;;;6.80;99.90;;;;;;5045391;28;20638;-49
2023/11/22 11:06:27;;;;;;;22.70;11.93;;;6.90;99.90;;;;;;5046893;28;20233;-46
2023/11/22 11:08:58;;;;;;;17.10;10.75;;;6.90;99.90;;;;;;5047411;28;20202;-48
2023/11/22 11:11:25;;;;;;;19.17;9.75;;;6.90;99.90;;;;;;5048689;28;20191;-49
2023/11/22 11:13:52;;;;;;;17.05;10.70;;;7.00;99.90;;;;;;5048473;28;20221;-50
2023/11/22 11:16:20;;;;;;;13.48;9.77;;;7.10;99.90;;;;;;5063991;28;20183;-48
2023/11/22 11:18:46;;;;;;;15.55;10.07;;;7.10;99.90;;;;;;5045880;28;20175;-50
2023/11/22 11:21:14;;;;;;;12.50;8.65;;;7.10;99.90;;;;;;5047776;28;20203;-45
2023/11/22 11:23:43;;;;;;;13.27;9.13;;;7.20;99.90;;;;;;5046962;28;20202;-48
2023/11/22 11:26:17;;;;;;;14.65;8.18;;;7.30;99.90;;;;;;5044447;28;20719;-45
2023/11/22 11:28:47;;;;;;;13.65;8.10;;;7.40;99.90;;;;;;5046893;28;20646;-46
2023/11/22 11:31:17;;;;;;;13.40;8.70;;;7.60;99.90;;;;;;5047872;28;20195;-50
2023/11/22 11:33:48;;;;;;;12.95;8.65;;;7.60;99.90;;;;;;5046921;28;20245;-44
2023/11/22 11:36:26;;;;;;;10.48;8.15;;;7.60;99.90;;;;;;5048498;28;20175;-47
2023/11/22 11:38:54;;;;;;;15.10;8.68;;;7.70;99.90;;;;;;5047737;28;20345;-46
2023/11/22 11:41:26;;;;;;;14.35;7.95;;;7.80;99.90;;;;;;5049189;28;20670;-49
2023/11/22 11:43:52;;;;;;;10.43;8.10;;;7.90;99.90;;;;;;5047065;28;20191;-43
2023/11/22 11:46:18;;;;;;;10.43;7.93;;;7.90;99.90;;;;;;5046157;28;20595;-50
2023/11/22 11:48:45;;;;;;;14.30;8.38;;;7.90;99.90;;;;;;5046725;28;20227;-48
2023/11/22 11:51:15;;;;;;;13.95;7.68;;;7.90;99.90;;;;;;5046596;28;20226;-51
2023/11/22 11:53:41;;;;;;;12.90;8.40;;;8.00;99.90;;;;;;5049476;28;20336;-52
2023/11/22 11:56:08;;;;;;;14.52;9.57;;;8.00;99.90;;;;;;5044430;28;20543;-48
2023/11/22 11:58:34;;;;;;;12.05;7.93;;;8.00;99.90;;;;;;5047234;28;20198;-49
2023/11/22 12:01:00;;;;;;;12.80;8.05;;;8.00;99.90;;;;;;5045378;28;20413;-47
2023/11/22 12:03:26;;;;;;;13.75;7.70;;;8.00;99.90;;;;;;5047175;28;20290;-47
2023/11/22 12:05:52;;;;;;;11.63;7.97;;;8.00;99.90;;;;;;5048745;28;20202;-44
2023/11/22 12:08:18;;;;;;;13.20;7.80;;;8.00;99.90;;;;;;5045454;28;20665;-51
2023/11/22 12:10:51;;;;;;;11.95;8.15;;;8.00;99.90;;;;;;5044957;28;20195;-49
2023/11/22 12:13:21;;;;;;;12.05;8.25;;;7.90;99.90;;;;;;5045846;28;20631;-47
2023/11/22 12:15:53;;;;;;;12.25;8.23;;;7.90;99.90;;;;;;5048196;28;20191;-47
2023/11/22 12:18:20;;;;;;;13.07;8.90;;;7.90;99.90;;;;;;5050394;28;20198;-43
2023/11/22 12:20:59;;;;;;;12.07;8.05;;;7.90;99.90;;;;;;5045807;28;20559;-47
2023/11/22 12:23:27;;;;;;;16.63;8.27;;;7.90;99.90;;;;;;5049028;28;20202;-46
2023/11/22 12:26:01;;;;;;;12.93;7.75;;;7.90;99.90;;;;;;5048672;28;20229;-47
2023/11/22 12:28:28;;;;;;;13.32;7.85;;;7.90;99.90;;;;;;5046516;28;20634;-43
2023/11/22 12:30:54;;;;;;;14.38;8.32;;;7.90;99.90;;;;;;5046245;28;20198;-50
2023/11/22 12:33:20;;;;;;;13.95;8.35;;;7.80;99.90;;;;;;5044181;28;20679;-49
2023/11/22 12:35:48;;;;;;;17.75;8.38;;;7.80;99.90;;;;;;5046713;28;20221;-47
2023/11/22 12:38:15;;;;;;;10.88;7.78;;;7.80;99.90;;;;;;5049129;28;20183;-47